Kaolack, Senegal
Current Conditions -  °F | °C
As of 3:00 PM on Wednesday 22 Oct 2014 (Local Time) from GOOK Reporting Station
Scattered Clouds Scattered Clouds  
Wind Chill: 104°   Ceiling: Unl
Heat Index: 116°   Visibility: 6mi
Dew Point: 73°   Wind: 5mph
Humidity: 37%   Direction: 320°NW
Pressure: 29.85"   Gusts: NA
Location:  14.15°N, 16.1°W
Report Text: GOOK 221500Z 32004KT 9999 FEW016 SCT230 40/23 Q1011
Loading
Personal Weather Stations






























Interactive Weather Map
Tropical Storm Tracking
New forecast layout! Learn more

10-Day Weather Forecast

Advertisements
Track Severe Weather on mobile